LESA/SLM METAR and TAF weather

Enter ICAO airport designator
Station Type Date Time Source
LESA METAR 2020/07/08 21:30 UTC NOAA

LESA 082130Z AUTO 04009KT CAVOK 22/11 Q1016


Station Type Date Time Source
LESA Decoded METAR 2020/07/08 21:30 UTC NOAA

Salamanca / Matacan, Spain (LESA) 40-57N 005-30W 795M
Jul 08, 2020 - 05:30 PM EDT / 2020.07.08 2130 UTC
Wind: from the NE (040 degrees) at 10 MPH (9 KT):0
Visibility: greater than 7 mile(s):0
Temperature: 71 F (22 C)
Dew Point: 51 F (11 C)
Relative Humidity: 49%
Pressure (altimeter): 30.00 in. Hg (1016 hPa)
ob: LESA 082130Z AUTO 04009KT CAVOK 22/11 Q1016
cycle: 21

Station Type Date Time Source
LESA TAF 2020/07/08 18:27 UTC NOAA

TAF LESA 081700Z 0818/0918 VRB05KT CAVOK TX34/0916Z TN17/0906Z PROB40
TEMPO 0818/0822 27015G35KT FEW045TCU PROB30
TEMPO 0818/0819 VRB15G35KT TSRA FEW045CB PROB40
TEMPO 0910/0918 SHRA FEW045TCU PROB40
TEMPO 0913/0918 VRB15G35KT TSRA FEW045CB

Example: see airport list